Archival Weather

Chicago O'Hare International

Chicago, Illinois (KORD)

Report from: Friday, March 30, 2012 1:51 AM CDT
Current time: Friday, June 21, 2024 8:02 PM CDT

Current weather – Weather history – Daily summaries
Weather forecast

Present weatherLight rain
Temperature5.6°C (42.1°F)
Wind chill2.3°C (36.1°F)
Dew point2.8°C (37.0°F)
Winds 9 kts (4.6 m/s, 10.4 mph) East (100°)
Wind gusts 14 kts (7.2 m/s, 16.1 mph)
Visibility10 mi. (16.1 km)
Clouds Ceiling: Broken clouds 11,000 ft. (3,353 m)
Overcast 25,000 ft. (7,620 m)
Altimeter29.89 in.Hg (1012 mB)
PrecipitiationTrace
Precip. events Rain began 6:47 AM
Relative humidity82 %
Density altitude-995 ft. (-303 m)
Sea-level pressure101.2 kPa (1012 mB, 29.90 in.Hg)
Remarks System requires maintenance
Automated weather observing station with precipitation discriminator
Pressure falling rapidly
Flight conditions Visual Meteorological Conditions
Raw data2012-03-30 06:51 KORD 300651Z 10009G14KT 10SM -RA BKN110 OVC250 06/03 A2989 RMK AO2 RAB47 PRESFR SLP124 P0000 T00560028 $
An error has occurred. This application may no longer respond until reloaded. Reload 🗙